Time;durP1;ratioP1;P1;durP2;ratioP2;P2;SDS_P1;SDS_P2;PMS_P1;PMS_P2;Temp;Humidity;BMP_temperature;BMP_pressure;BME280_temperature;BME280_humidity;BME280_pressure;Samples;Min_cycle;Max_cycle;Signal;HPM_P1;HPM_P2
2021/03/20 00:01:49;;;;;;;15.47;9.90;;;;;;;-1.79;74.31;97180.70;1743189;82;21543;-77
2021/03/20 00:04:18;;;;;;;20.43;10.20;;;;;;;-1.80;73.59;97179.44;1744568;82;21681;-78
2021/03/20 00:06:50;;;;;;;17.53;10.47;;;;;;;-1.80;74.78;97183.31;1743362;82;21141;-78
2021/03/20 00:09:23;;;;;;;17.87;9.73;;;;;;;-1.81;74.42;97178.61;1743399;82;21120;-77
2021/03/20 00:11:51;;;;;;;21.77;10.83;;;;;;;-1.83;74.96;97179.55;1744407;81;21112;-79
2021/03/20 00:14:22;;;;;;;18.00;10.43;;;;;;;-1.85;74.49;97186.03;1744863;82;21104;-77
2021/03/20 00:16:53;;;;;;;17.43;10.03;;;;;;;-1.86;74.06;97186.95;1744892;82;21085;-78
2021/03/20 00:19:22;;;;;;;17.93;10.17;;;;;;;-1.87;75.25;97186.98;1745263;81;21113;-77
2021/03/20 00:21:50;;;;;;;16.73;9.20;;;;;;;-1.90;74.96;97181.00;1745104;82;21109;-80
2021/03/20 00:24:18;;;;;;;18.63;10.17;;;;;;;-1.94;75.33;97182.00;1745094;80;21116;-80
2021/03/20 00:26:46;;;;;;;13.67;8.70;;;;;;;-1.96;74.48;97179.89;1745024;82;21219;-80
2021/03/20 00:29:14;;;;;;;15.53;9.07;;;;;;;-1.98;76.01;97177.80;1744848;82;21155;-88
2021/03/20 00:31:42;;;;;;;18.07;10.43;;;;;;;-1.97;75.48;97179.48;1745063;82;21172;-79
2021/03/20 00:34:11;;;;;;;15.57;9.73;;;;;;;-1.98;74.42;97180.37;1745156;82;21089;-79
2021/03/20 00:36:39;;;;;;;16.80;9.30;;;;;;;-1.99;73.91;97172.22;1746001;82;21196;-82
2021/03/20 00:39:08;;;;;;;17.23;10.23;;;;;;;-1.99;73.95;97172.68;1746402;82;21161;-77
2021/03/20 00:41:40;;;;;;;17.77;9.20;;;;;;;-1.97;74.45;97173.03;1747537;82;21108;-78
2021/03/20 00:44:12;;;;;;;15.27;8.73;;;;;;;-1.97;74.15;97174.32;1752106;81;21108;-79
2021/03/20 00:46:40;;;;;;;16.63;9.30;;;;;;;-1.96;74.16;97166.98;1752195;81;21132;-76
2021/03/20 00:49:39;;;;;;;15.63;8.50;;;;;;;-1.96;74.13;97173.44;1750698;81;21144;-76
2021/03/20 00:52:07;;;;;;;15.43;9.07;;;;;;;-1.98;74.33;97166.17;1752276;82;21116;-78
2021/03/20 00:54:36;;;;;;;15.23;9.60;;;;;;;-2.02;74.25;97166.30;1731516;82;21104;-78
2021/03/20 00:57:06;;;;;;;15.03;7.90;;;;;;;-2.01;73.62;97168.00;1752460;82;21286;-80
2021/03/20 00:59:37;;;;;;;14.87;8.73;;;;;;;-2.01;74.36;97172.73;1752415;82;21306;-83
2021/03/20 01:02:05;;;;;;;15.53;8.83;;;;;;;-2.03;74.71;97173.22;1731830;82;21105;-79
2021/03/20 01:04:33;;;;;;;16.47;8.90;;;;;;;-2.07;74.58;97172.89;1750329;82;21164;-76
2021/03/20 01:07:01;;;;;;;12.67;8.13;;;;;;;-2.12;74.73;97172.19;1752557;79;21125;-77
2021/03/20 01:09:32;;;;;;;13.60;8.10;;;;;;;-2.14;74.55;97177.83;1752622;79;21266;-77
2021/03/20 01:12:02;;;;;;;16.37;9.37;;;;;;;-2.17;74.88;97175.33;1750915;80;21254;-77
2021/03/20 01:14:30;;;;;;;23.30;9.43;;;;;;;-2.18;74.75;97177.08;1721068;81;21116;-77
2021/03/20 01:16:58;;;;;;;14.17;8.27;;;;;;;-2.18;73.87;97177.53;1720521;83;21267;-79
2021/03/20 01:19:27;;;;;;;18.13;8.77;;;;;;;-2.22;74.18;97178.91;1720600;83;21124;-77
2021/03/20 01:21:55;;;;;;;15.60;8.20;;;;;;;-2.23;74.20;97178.95;1694393;83;21187;-77
2021/03/20 01:24:22;;;;;;;17.93;8.70;;;;;;;-2.27;74.75;97176.88;1719565;83;21117;-77
2021/03/20 01:26:50;;;;;;;13.10;7.93;;;;;;;-2.32;75.13;97185.20;1727585;82;21129;-77
2021/03/20 01:29:21;;;;;;;15.27;8.90;;;;;;;-2.36;75.34;97178.42;1750456;82;21137;-77
2021/03/20 01:31:51;;;;;;;15.60;8.43;;;;;;;-2.36;73.63;97186.16;1750694;82;21270;-79
2021/03/20 01:34:21;;;;;;;13.10;7.50;;;;;;;-2.36;75.36;97187.45;1750539;82;21144;-87
2021/03/20 01:36:50;;;;;;;15.10;9.10;;;;;;;-2.40;75.47;97182.82;1750829;80;21125;-87
2021/03/20 01:39:20;;;;;;;15.20;9.03;;;;;;;-2.44;73.50;97195.42;1750877;82;21498;-77
2021/03/20 01:41:48;;;;;;;15.80;8.77;;;;;;;-2.49;74.07;97194.69;1750735;82;21116;-81
2021/03/20 01:44:23;;;;;;;17.00;8.97;;;;;;;-2.53;73.52;97199.08;1750659;82;21144;-78
2021/03/20 01:46:56;;;;;;;16.50;8.77;;;;;;;-2.54;73.76;97197.39;1750620;80;21136;-79
2021/03/20 01:49:37;;;;;;;13.87;7.97;;;;;;;-2.54;73.23;97200.42;1750625;82;21412;-78
2021/03/20 01:52:19;;;;;;;18.03;9.30;;;;;;;-2.54;74.39;97201.26;1750049;82;21286;-80
2021/03/20 01:55:11;;;;;;;16.60;9.10;;;;;;;-2.57;74.21;97206.95;1729714;82;21134;-79
2021/03/20 01:57:50;;;;;;;15.30;9.03;;;;;;;-2.56;73.81;97206.93;1736974;82;21245;-77
2021/03/20 02:00:24;;;;;;;13.90;8.30;;;;;;;-2.58;72.19;97209.98;1749370;82;21169;-79
2021/03/20 02:02:52;;;;;;;18.23;9.13;;;;;;;-2.67;73.55;97207.19;1750268;82;21141;-78
2021/03/20 02:05:30;;;;;;;12.83;8.47;;;;;;;-2.71;72.89;97204.72;1750387;82;21136;-77
2021/03/20 02:08:02;;;;;;;15.07;8.20;;;;;;;-2.74;71.69;97210.81;1750527;82;21176;-79
2021/03/20 02:10:35;;;;;;;14.70;7.70;;;;;;;-2.79;72.60;97207.94;1723717;82;21250;-78
2021/03/20 02:13:20;;;;;;;15.50;7.90;;;;;;;-2.84;73.96;97207.62;1725902;82;21144;-76
2021/03/20 02:16:14;;;;;;;10.90;6.00;;;;;;;-2.90;73.40;97208.22;1752683;82;21081;-77
2021/03/20 02:18:50;;;;;;;14.97;8.20;;;;;;;-2.92;74.93;97206.94;1751474;82;21255;-79
2021/03/20 02:21:35;;;;;;;14.58;8.30;;;;;;;-2.99;74.10;97204.11;1747590;82;21145;-77
2021/03/20 02:24:38;;;;;;;11.60;6.75;;;;;;;-2.92;72.09;97208.69;1819872;79;24674;-79
2021/03/20 02:27:35;;;;;;;17.63;8.53;;;;;;;-2.99;73.79;97206.27;1688150;84;21151;-77
2021/03/20 02:30:08;;;;;;;15.63;8.43;;;;;;;-2.99;73.92;97214.01;1687633;85;21151;-77
2021/03/20 02:33:07;;;;;;;13.70;7.80;;;;;;;-3.03;72.98;97214.95;1687178;85;21223;-78
2021/03/20 02:35:49;;;;;;;17.90;9.00;;;;;;;-3.04;72.29;97209.84;1687519;85;21131;-80
2021/03/20 02:38:44;;;;;;;13.57;8.57;;;;;;;-3.06;72.80;97216.77;1687766;85;21159;-78
2021/03/20 02:41:33;;;;;;;13.88;8.15;;;;;;;-2.94;71.67;97215.61;1791894;80;23694;-79
2021/03/20 02:44:22;;;;;;;13.60;8.23;;;;;;;-3.00;72.33;97217.89;1765679;81;21411;-76
2021/03/20 02:47:00;;;;;;;12.07;8.27;;;;;;;-2.97;73.29;97219.13;1765434;81;21270;-77
2021/03/20 02:49:56;;;;;;;16.33;8.87;;;;;;;-2.97;72.87;97231.19;1766122;81;21155;-82
2021/03/20 02:53:01;;;;;;;14.67;8.00;;;;;;;-3.00;71.92;97226.92;1749306;81;21619;-77
2021/03/20 02:55:43;;;;;;;16.37;8.40;;;;;;;-3.04;71.34;97226.61;1734440;83;21188;-79
2021/03/20 02:58:32;;;;;;;17.10;9.20;;;;;;;-3.03;71.39;97230.88;1733868;83;21157;-77
2021/03/20 03:01:23;;;;;;;13.62;8.55;;;;;;;-3.05;71.44;97231.36;1742755;81;21112;-77
2021/03/20 03:03:54;;;;;;;13.77;7.97;;;;;;;-3.07;71.30;97233.11;1740449;82;21148;-77
2021/03/20 03:06:48;;;;;;;14.03;8.80;;;;;;;-3.15;71.61;97241.89;1758856;81;21674;-78
2021/03/20 03:09:41;;;;;;;13.43;8.13;;;;;;;-3.15;71.09;97244.89;1741757;80;21124;-78
2021/03/20 03:12:16;;;;;;;14.60;8.60;;;;;;;-3.15;71.12;97248.33;1724033;83;21189;-82
2021/03/20 03:15:05;;;;;;;13.77;8.37;;;;;;;-3.17;71.23;97250.09;1727407;83;21110;-78
2021/03/20 03:17:38;;;;;;;12.30;7.53;;;;;;;-3.20;71.98;97248.86;1698371;82;21119;-79
2021/03/20 03:20:14;;;;;;;14.23;8.30;;;;;;;-3.26;74.00;97249.02;1725865;83;21148;-77
2021/03/20 03:23:05;;;;;;;14.45;7.78;;;;;;;-3.31;73.07;97246.53;1727970;83;21143;-78
2021/03/20 03:25:37;;;;;;;15.60;8.73;;;;;;;-3.33;73.19;97246.17;1717557;83;21120;-78
2021/03/20 03:28:08;;;;;;;15.40;8.97;;;;;;;-3.38;72.97;97251.85;1663306;85;21184;-77
2021/03/20 03:30:37;;;;;;;15.53;7.93;;;;;;;-3.35;72.32;97251.38;1704141;83;21142;-77
2021/03/20 03:33:19;;;;;;;15.20;9.07;;;;;;;-3.34;72.98;97250.92;1698339;83;21130;-77
2021/03/20 03:35:55;;;;;;;16.80;8.47;;;;;;;-3.30;72.65;97257.72;1726516;83;21720;-77
2021/03/20 03:38:47;;;;;;;16.02;8.60;;;;;;;-3.30;72.15;97261.58;1726201;83;21171;-78
2021/03/20 03:41:35;;;;;;;12.20;7.17;;;;;;;-3.33;71.68;97259.89;1715239;83;21129;-77
2021/03/20 03:44:07;;;;;;;12.20;7.80;;;;;;;-3.35;72.08;97265.55;1713469;83;21173;-76
2021/03/20 03:46:39;;;;;;;13.77;8.30;;;;;;;-3.37;71.32;97258.70;1713948;83;21316;-78
2021/03/20 03:49:10;;;;;;;11.73;7.73;;;;;;;-3.38;71.36;97260.88;1694102;84;21149;-79
2021/03/20 03:51:39;;;;;;;14.10;9.30;;;;;;;-3.40;72.61;97266.53;1711227;84;21137;-78
2021/03/20 03:54:07;;;;;;;18.33;8.00;;;;;;;-3.37;72.69;97262.58;1689736;83;21614;-77
2021/03/20 03:56:52;;;;;;;13.17;7.83;;;;;;;-3.39;69.80;97267.77;1665907;86;21192;-78
2021/03/20 03:59:45;;;;;;;11.10;6.67;;;;;;;-3.38;71.36;97269.90;1708948;84;21331;-78
2021/03/20 04:02:45;;;;;;;19.30;9.77;;;;;;;-3.35;71.51;97268.55;1685450;83;21338;-77
2021/03/20 04:05:27;;;;;;;14.03;7.40;;;;;;;-3.34;71.52;97268.97;1685036;85;21290;-77
2021/03/20 04:08:38;;;;;;;17.10;7.80;;;;;;;-3.36;70.79;97274.16;1705972;84;21121;-78
2021/03/20 04:11:32;;;;;;;15.03;7.10;;;;;;;-3.38;71.90;97273.77;1710187;84;21145;-78
2021/03/20 04:14:26;;;;;;;15.83;8.73;;;;;;;-3.43;73.67;97275.16;1696754;84;21168;-76
2021/03/20 04:17:13;;;;;;;16.20;8.80;;;;;;;-3.48;71.55;97278.28;1710810;83;21135;-76
2021/03/20 04:19:47;;;;;;;12.57;6.93;;;;;;;-3.49;70.50;97279.16;1713649;84;21160;-78
2021/03/20 04:22:43;;;;;;;15.30;7.80;;;;;;;-3.48;71.15;97277.83;1712898;83;21141;-78
2021/03/20 04:25:24;;;;;;;17.20;8.83;;;;;;;-3.46;71.17;97288.13;1676110;85;21212;-77
2021/03/20 04:28:16;;;;;;;13.10;7.57;;;;;;;-3.49;71.19;97286.89;1691435;84;21141;-77
2021/03/20 04:30:55;;;;;;;16.63;9.00;;;;;;;-3.52;71.37;97280.08;1701015;84;21185;-77
2021/03/20 04:33:30;;;;;;;15.93;9.70;;;;;;;-3.58;71.37;97282.80;1713272;84;21149;-79
2021/03/20 04:36:03;;;;;;;15.77;8.57;;;;;;;-3.55;71.29;97281.42;1679329;85;21219;-77
2021/03/20 04:38:31;;;;;;;15.50;9.57;;;;;;;-3.55;70.83;97295.59;1713158;84;21195;-78
2021/03/20 04:41:06;;;;;;;18.67;9.70;;;;;;;-3.54;71.37;97288.27;1667986;85;21186;-77
2021/03/20 04:43:36;;;;;;;18.10;9.80;;;;;;;-3.52;71.65;97295.55;1686608;85;21193;-78
2021/03/20 04:46:13;;;;;;;23.50;12.07;;;;;;;-3.52;71.02;97298.13;1674441;86;21170;-77
2021/03/20 04:48:49;;;;;;;15.37;9.07;;;;;;;-3.57;71.20;97302.95;1673416;86;21276;-76
2021/03/20 04:51:34;;;;;;;12.90;6.87;;;;;;;-3.55;72.42;97305.91;1660738;86;21627;-78
2021/03/20 04:54:10;;;;;;;18.53;9.23;;;;;;;-3.51;73.82;97306.69;1674177;86;21184;-76
2021/03/20 04:56:45;;;;;;;;;;;;;;;-3.53;72.93;97313.17;1676237;86;21164;-77
2021/03/20 04:59:39;;;;;;;19.70;8.70;;;;;;;-3.51;69.80;97312.70;1667182;86;20141;-77
2021/03/20 05:02:21;;;;;;;14.93;7.67;;;;;;;-3.47;70.58;97312.20;1673704;86;21662;-77
2021/03/20 05:04:57;;;;;;;16.27;9.30;;;;;;;-3.42;71.43;97311.65;1669881;86;21219;-77
2021/03/20 05:07:25;;;;;;;12.73;8.10;;;;;;;-3.38;71.25;97315.01;1673639;86;21192;-77
2021/03/20 05:10:02;;;;;;;16.70;8.73;;;;;;;-3.29;71.50;97317.39;1674381;84;21235;-76
2021/03/20 05:12:33;;;;;;;16.90;8.83;;;;;;;-3.25;71.52;97324.20;1674127;86;21156;-77
2021/03/20 05:15:09;;;;;;;14.37;7.97;;;;;;;-3.22;71.09;97324.56;1656851;86;21304;-77
2021/03/20 05:17:39;;;;;;;13.73;7.67;;;;;;;-3.14;70.87;97329.98;1644878;87;21146;-77
2021/03/20 05:20:09;;;;;;;17.20;9.10;;;;;;;-3.00;70.26;97324.94;1659100;85;21197;-77
2021/03/20 05:22:38;;;;;;;13.87;7.27;;;;;;;-2.94;70.31;97329.98;1686770;85;21700;-77
2021/03/20 05:25:10;;;;;;;13.80;7.73;;;;;;;-2.89;70.85;97324.27;1687166;85;21290;-76
2021/03/20 05:27:38;;;;;;;14.90;7.37;;;;;;;-2.85;70.08;97325.91;1687476;85;21319;-78
2021/03/20 05:30:08;;;;;;;13.70;7.00;;;;;;;-2.77;70.48;97327.45;1686950;85;21180;-78
2021/03/20 05:32:36;;;;;;;14.67;7.70;;;;;;;-2.70;71.39;97328.58;1687349;85;21260;-79
2021/03/20 05:35:12;;;;;;;14.07;8.10;;;;;;;-2.54;71.56;97332.07;1687394;85;21255;-78
2021/03/20 05:37:43;;;;;;;13.97;7.23;;;;;;;-2.24;72.75;97336.92;1687355;85;21199;-83
2021/03/20 05:40:24;;;;;;;18.83;8.93;;;;;;;-1.77;71.13;97339.59;1676005;85;21286;-77
2021/03/20 05:43:28;;;;;;;15.93;10.20;;;;;;;-1.36;71.04;97328.56;1689647;85;21300;-77
2021/03/20 05:46:36;;;;;;;19.40;9.10;;;;;;;-0.79;69.49;97326.03;1690546;85;21095;-77
2021/03/20 05:49:29;;;;;;;13.13;8.17;;;;;;;-0.13;67.28;97323.48;1690608;83;21270;-78
2021/03/20 05:52:21;;;;;;;22.17;12.30;;;;;;;0.39;65.28;97326.02;1682304;85;21160;-78
2021/03/20 05:55:33;;;;;;;15.07;8.63;;;;;;;0.95;64.33;97333.08;1661497;86;21185;-79
2021/03/20 05:58:35;;;;;;;13.43;8.30;;;;;;;1.35;62.39;97332.82;1678313;85;21192;-82
2021/03/20 06:01:28;;;;;;;12.77;8.40;;;;;;;1.83;61.86;97334.36;1677422;85;21127;-83
2021/03/20 06:04:41;;;;;;;18.65;8.93;;;;;;;2.32;62.27;97336.63;1644113;85;21197;-78
2021/03/20 06:07:23;;;;;;;14.65;8.80;;;;;;;2.65;59.80;97337.83;1633166;88;21311;-85
2021/03/20 06:10:17;;;;;;;15.98;8.23;;;;;;;3.07;60.22;97341.16;1674109;85;21204;-82
2021/03/20 06:13:21;;;;;;;12.28;7.75;;;;;;;3.31;60.74;97337.88;1682099;85;21120;-90
2021/03/20 06:16:05;;;;;;;12.00;8.20;;;;;;;3.65;61.61;97335.42;1675920;85;21609;-82
2021/03/20 06:19:18;;;;;;;12.20;8.35;;;;;;;4.04;57.73;97337.82;1670128;85;21192;-84
2021/03/20 06:22:10;;;;;;;12.82;7.95;;;;;;;4.32;59.02;97331.20;1674751;85;21129;-79
2021/03/20 06:25:30;;;;;;;16.37;8.45;;;;;;;4.69;60.28;97339.73;1670129;86;21167;-83
2021/03/20 06:27:59;;;;;;;12.35;9.00;;;;;;;4.98;58.84;97345.18;1674468;86;21131;-83
2021/03/20 06:30:44;;;;;;;14.53;8.38;;;;;;;5.17;54.18;97345.49;1673887;86;21124;-81
2021/03/20 06:33:31;;;;;;;13.70;9.25;;;;;;;5.44;58.57;97349.68;1673600;86;21615;-85
2021/03/20 06:36:07;;;;;;;18.12;8.98;;;;;;;5.62;58.21;97344.35;1661278;86;21167;-82
2021/03/20 06:38:47;;;;;;;18.37;9.65;;;;;;;5.60;55.71;97347.51;1674489;86;21625;-82
2021/03/20 06:41:36;;;;;;;16.25;10.60;;;;;;;5.83;56.61;97342.77;1672922;86;21639;-83
2021/03/20 06:44:26;;;;;;;22.10;10.15;;;;;;;6.06;54.15;97340.16;1671965;86;21562;-84
2021/03/20 06:46:54;;;;;;;15.38;9.88;;;;;;;6.08;54.82;97346.13;1672033;86;21172;-89
2021/03/20 06:49:39;;;;;;;19.80;10.58;;;;;;;5.78;54.12;97343.85;1672192;86;21538;-82
2021/03/20 06:52:12;;;;;;;14.13;10.18;;;;;;;5.89;51.88;97343.71;1667856;85;21156;-83
2021/03/20 06:54:39;;;;;;;16.62;10.25;;;;;;;6.07;51.69;97345.30;1671471;86;21168;-82
2021/03/20 06:57:10;;;;;;;19.17;10.95;;;;;;;6.09;47.36;97343.44;1672130;86;21163;-87
2021/03/20 06:59:38;;;;;;;17.80;10.30;;;;;;;6.27;51.11;97347.22;1671795;86;21199;-83
2021/03/20 07:02:23;;;;;;;15.00;9.88;;;;;;;6.60;51.78;97351.85;1642910;86;21175;-79
2021/03/20 07:05:12;;;;;;;15.40;9.70;;;;;;;6.93;47.67;97346.79;1672023;86;21205;-85
2021/03/20 07:08:07;;;;;;;15.18;10.08;;;;;;;7.25;45.33;97346.09;1671376;86;21177;-79
2021/03/20 07:10:54;;;;;;;15.98;10.30;;;;;;;7.30;50.26;97351.05;1671272;84;21206;-85
2021/03/20 07:13:33;;;;;;;20.60;12.07;;;;;;;7.51;43.57;97351.50;1664953;86;21176;-79
2021/03/20 07:16:08;;;;;;;19.48;11.22;;;;;;;7.68;47.96;97347.77;1658307;86;21613;-89
2021/03/20 07:18:45;;;;;;;16.90;10.90;;;;;;;7.87;47.55;97355.77;1672424;85;21133;-88
2021/03/20 07:21:36;;;;;;;28.32;19.05;;;;;;;8.10;44.37;97356.42;1663437;85;21187;-88
2021/03/20 07:24:39;;;;;;;16.05;10.75;;;;;;;8.47;50.20;97354.91;1645082;87;21200;-91
2021/03/20 07:27:20;;;;;;;14.85;9.10;;;;;;;8.47;50.20;97354.91;1615888;89;21179;-87
2021/03/20 07:29:59;;;;;;;14.05;10.45;;;;;;;8.41;45.99;97349.11;1616051;89;21191;-86
2021/03/20 07:32:36;;;;;;;15.50;11.05;;;;;;;8.52;45.74;97354.14;1615359;87;21582;-88
2021/03/20 07:35:23;;;;;;;16.65;10.78;;;;;;;8.58;45.30;97357.69;1639082;87;21194;-78
2021/03/20 07:37:52;;;;;;;16.73;11.03;;;;;;;8.62;42.49;97359.14;1639255;87;21202;-79
2021/03/20 07:40:31;;;;;;;17.55;11.43;;;;;;;8.74;43.59;97364.87;1639151;87;21628;-85
2021/03/20 07:43:21;;;;;;;21.10;13.83;;;;;;;8.89;46.48;97368.25;1659442;85;21168;-89
2021/03/20 07:45:57;;;;;;;15.50;11.45;;;;;;;8.86;42.39;97367.62;1659953;86;21176;-81
2021/03/20 07:48:28;;;;;;;17.82;12.55;;;;;;;9.08;48.02;97374.00;1656709;86;21124;-84
2021/03/20 07:51:11;;;;;;;18.07;12.03;;;;;;;9.17;46.49;97370.72;1658347;86;21295;-79
2021/03/20 07:53:46;;;;;;;16.23;11.50;;;;;;;9.30;43.95;97364.98;1641580;86;21129;-85
2021/03/20 07:56:28;;;;;;;17.40;11.63;;;;;;;9.36;43.77;97368.97;1643592;87;21586;-80
2021/03/20 07:59:24;;;;;;;18.23;11.50;;;;;;;9.52;42.29;97371.32;1647992;87;21171;-79
2021/03/20 08:02:01;;;;;;;18.10;13.08;;;;;;;9.55;43.22;97365.84;1636183;87;21185;-81
2021/03/20 08:04:55;;;;;;;19.15;11.80;;;;;;;9.55;42.79;97359.27;1641512;87;21552;-86
2021/03/20 08:07:48;;;;;;;20.68;13.08;;;;;;;9.74;43.26;97368.47;1639073;86;21168;-81
2021/03/20 08:10:30;;;;;;;18.15;11.80;;;;;;;9.84;44.39;97368.16;1586072;89;21164;-80
2021/03/20 08:13:07;;;;;;;17.30;11.33;;;;;;;9.69;45.46;97373.61;1622861;88;21205;-84
2021/03/20 08:15:42;;;;;;;18.60;12.80;;;;;;;9.69;44.36;97375.38;1631968;85;21201;-80
2021/03/20 08:18:36;;;;;;;16.97;12.33;;;;;;;9.61;41.88;97375.92;1659758;86;21175;-87
2021/03/20 08:21:28;;;;;;;18.10;12.33;;;;;;;9.72;42.61;97379.58;1659157;86;21176;-82
2021/03/20 08:24:10;;;;;;;20.02;12.18;;;;;;;9.84;41.36;97382.64;1634444;87;21207;-82
2021/03/20 08:27:09;;;;;;;13.38;10.63;;;;;;;9.87;41.98;97385.06;1634655;88;21562;-86
2021/03/20 08:30:05;;;;;;;15.43;11.20;;;;;;;9.87;39.97;97392.11;1634549;88;21358;-86
2021/03/20 08:33:20;;;;;;;16.50;11.65;;;;;;;9.78;43.91;97391.00;1634439;85;21209;-85
2021/03/20 08:35:59;;;;;;;18.30;11.57;;;;;;;9.66;40.33;97388.75;1682189;85;21150;-90
2021/03/20 08:38:41;;;;;;;18.15;10.80;;;;;;;9.55;40.91;97390.02;1682239;85;21157;-87
2021/03/20 08:41:50;;;;;;;15.28;11.08;;;;;;;9.65;41.87;97391.05;1661897;85;21224;-87
2021/03/20 08:44:56;;;;;;;19.73;11.08;;;;;;;9.52;44.45;97395.00;1659413;86;21191;-81
2021/03/20 08:48:32;;;;;;;15.63;10.28;;;;;;;9.52;39.95;97396.32;1852428;77;24921;-85
2021/03/20 08:51:19;;;;;;;15.98;10.98;;;;;;;9.44;42.51;97396.02;1774417;78;21162;-78
2021/03/20 08:54:11;;;;;;;16.27;11.30;;;;;;;9.47;43.73;97397.96;1775786;78;21173;-81
2021/03/20 08:57:08;;;;;;;16.25;9.55;;;;;;;9.45;45.30;97395.08;1790896;80;21172;-85
2021/03/20 08:59:55;;;;;;;15.70;9.10;;;;;;;9.24;42.21;97394.81;1775617;80;21211;-81
2021/03/20 09:02:29;;;;;;;15.35;10.85;;;;;;;9.12;44.56;97401.28;1792239;80;21129;-77
2021/03/20 09:05:33;;;;;;;11.70;8.38;;;;;;;8.77;43.44;97398.48;1805164;78;21115;-78
2021/03/20 09:08:17;;;;;;;11.30;6.90;;;;;;;8.65;42.96;97407.55;1805772;78;21122;-84
2021/03/20 09:10:59;;;;;;;9.48;6.80;;;;;;;8.67;43.70;97401.73;1751476;81;21171;-79
2021/03/20 09:13:56;;;;;;;13.48;7.75;;;;;;;8.32;41.33;97414.56;1777285;80;21264;-78
2021/03/20 09:16:50;;;;;;;13.93;8.88;;;;;;;7.94;42.19;97414.79;1776673;80;21587;-82
2021/03/20 09:19:35;;;;;;;11.38;7.45;;;;;;;7.84;42.15;97418.97;1784339;80;21600;-83
2021/03/20 09:22:10;;;;;;;9.25;6.60;;;;;;;7.85;41.75;97420.62;1786000;80;21171;-90
2021/03/20 09:24:49;;;;;;;10.60;6.90;;;;;;;7.95;40.85;97412.54;1758640;80;21129;-86
2021/03/20 09:28:10;;;;;;;12.33;7.72;;;;;;;7.95;40.20;97409.45;1760527;81;21176;-83
2021/03/20 09:30:48;;;;;;;13.18;7.80;;;;;;;7.95;40.20;97409.45;1764530;81;21220;-88
2021/03/20 09:33:33;;;;;;;9.18;7.22;;;;;;;7.58;32.46;97418.82;1752079;80;21150;-88
2021/03/20 09:36:06;;;;;;;9.95;7.15;;;;;;;7.39;38.32;97423.08;1790395;80;21180;-85
2021/03/20 09:38:39;;;;;;;8.33;6.20;;;;;;;6.96;42.09;97421.30;1713746;83;21131;-83
2021/03/20 09:41:23;;;;;;;7.62;5.85;;;;;;;6.92;40.28;97429.82;1716878;83;21521;-86
2021/03/20 09:43:59;;;;;;;8.05;5.67;;;;;;;6.92;40.28;97429.82;1702141;84;21183;-83
2021/03/20 09:46:46;;;;;;;12.78;6.67;;;;;;;6.61;39.91;97430.81;1690798;84;21162;-85
2021/03/20 09:49:22;;;;;;;9.90;6.35;;;;;;;6.61;39.91;97430.81;1699684;84;21175;-79
2021/03/20 09:51:58;;;;;;;10.35;6.10;;;;;;;6.52;38.34;97425.18;1694290;84;21199;-87
2021/03/20 09:54:43;;;;;;;6.28;3.60;;;;;;;6.34;37.46;97428.39;1708978;82;21180;-87
2021/03/20 09:57:22;;;;;;;5.90;4.03;;;;;;;5.89;34.66;97429.57;1703975;84;21183;-86
2021/03/20 09:59:49;;;;;;;7.92;5.37;;;;;;;5.17;35.57;97426.51;1708154;82;21127;-80
2021/03/20 10:02:27;;;;;;;7.45;4.90;;;;;;;4.75;36.72;97430.45;1689074;83;21166;-82
2021/03/20 10:05:00;;;;;;;11.70;6.78;;;;;;;4.55;37.90;97425.78;1702510;83;21194;-84
2021/03/20 10:07:34;;;;;;;9.38;6.08;;;;;;;4.53;39.67;97421.95;1691399;83;21230;-84
2021/03/20 10:10:17;;;;;;;7.08;4.70;;;;;;;4.67;40.50;97424.30;1709237;83;21602;-77
2021/03/20 10:12:53;;;;;;;7.75;5.62;;;;;;;4.72;40.13;97426.23;1708022;82;21205;-88
2021/03/20 10:15:28;;;;;;;6.80;4.45;;;;;;;4.82;39.50;97422.67;1719013;82;21174;-83
2021/03/20 10:18:07;;;;;;;7.72;4.10;;;;;;;4.77;37.31;97428.14;1697814;84;21586;-89
2021/03/20 10:20:58;;;;;;;7.97;3.95;;;;;;;4.49;36.07;97440.46;1711954;83;21132;-82
2021/03/20 10:23:43;;;;;;;9.25;6.12;;;;;;;4.17;36.25;97438.97;1720666;83;21609;-89
2021/03/20 10:26:49;;;;;;;9.10;6.42;;;;;;;4.14;38.66;97434.76;1692159;84;21611;-84
2021/03/20 10:29:22;;;;;;;6.53;4.30;;;;;;;4.34;39.99;97429.84;1705780;82;21725;-84
2021/03/20 10:31:54;;;;;;;9.93;6.35;;;;;;;4.53;39.49;97436.31;1698824;84;21217;-86
2021/03/20 10:34:25;;;;;;;8.43;6.00;;;;;;;4.53;38.59;97434.15;1708664;83;21612;-82
2021/03/20 10:37:08;;;;;;;13.30;6.80;;;;;;;4.69;40.62;97435.05;1701990;82;21347;-88
2021/03/20 10:39:39;;;;;;;9.50;6.62;;;;;;;4.91;40.44;97431.81;1693877;83;21163;-86
2021/03/20 10:42:29;;;;;;;10.68;6.92;;;;;;;5.10;39.38;97427.32;1700108;83;21564;-80
2021/03/20 10:45:00;;;;;;;10.60;6.78;;;;;;;5.24;40.77;97427.89;1707105;82;21300;-89
2021/03/20 10:47:36;;;;;;;19.23;7.50;;;;;;;5.50;41.96;97426.94;1690751;83;21226;-78
2021/03/20 10:50:24;;;;;;;9.78;6.28;;;;;;;5.74;42.62;97432.60;1711882;83;21176;-82
2021/03/20 10:52:52;;;;;;;8.70;6.00;;;;;;;5.77;37.67;97428.97;1719130;82;21675;-77
2021/03/20 10:55:26;;;;;;;8.50;6.00;;;;;;;5.38;38.04;97437.58;1715083;82;21149;-79
2021/03/20 10:57:54;;;;;;;7.72;5.35;;;;;;;5.19;38.00;97429.89;1719479;82;21147;-88
2021/03/20 11:00:43;;;;;;;5.50;3.58;;;;;;;5.06;38.77;97440.63;1723621;81;21213;-85
2021/03/20 11:03:35;;;;;;;9.60;6.62;;;;;;;4.75;35.64;97431.77;1713424;83;21174;-86
2021/03/20 11:06:20;;;;;;;10.93;6.30;;;;;;;4.61;38.54;97426.77;1712071;83;21158;-76
2021/03/20 11:09:08;;;;;;;4.50;3.22;;;;;;;4.65;39.42;97433.53;1733332;81;21196;-85
2021/03/20 11:11:40;;;;;;;7.25;5.17;;;;;;;4.61;35.59;97421.55;1752598;82;21289;-88
2021/03/20 11:14:21;;;;;;;10.85;5.45;;;;;;;4.58;35.99;97423.47;1727772;83;21174;-79
2021/03/20 11:17:04;;;;;;;7.92;6.08;;;;;;;4.60;39.14;97422.94;1694791;84;21198;-86
2021/03/20 11:19:37;;;;;;;8.15;5.65;;;;;;;4.80;39.26;97417.98;1666621;84;21200;-88
2021/03/20 11:22:27;;;;;;;8.18;5.17;;;;;;;4.90;38.60;97412.67;1693965;84;21212;-85
2021/03/20 11:24:59;;;;;;;8.08;5.85;;;;;;;4.83;37.40;97410.83;1706086;83;21142;-84
2021/03/20 11:27:32;;;;;;;10.25;6.12;;;;;;;4.65;37.74;97408.73;1733443;82;21218;-84
2021/03/20 11:30:19;;;;;;;9.35;6.05;;;;;;;4.62;38.40;97405.44;1727597;82;21186;-79
2021/03/20 11:32:49;;;;;;;9.60;5.78;;;;;;;4.51;38.15;97403.35;1720964;83;21565;-84
2021/03/20 11:35:23;;;;;;;8.43;6.20;;;;;;;4.55;38.37;97411.42;1708876;83;21168;-83
2021/03/20 11:37:52;;;;;;;12.75;6.03;;;;;;;4.59;39.62;97395.14;1702813;83;21165;-82
2021/03/20 11:40:36;;;;;;;6.70;4.92;;;;;;;4.73;37.89;97401.81;1710175;82;21145;-85
2021/03/20 11:43:08;;;;;;;9.85;5.45;;;;;;;4.73;37.50;97398.34;1712368;83;21542;-88
2021/03/20 11:45:41;;;;;;;8.73;6.12;;;;;;;4.72;39.42;97396.65;1743806;81;21270;-82
2021/03/20 11:48:32;;;;;;;5.67;3.58;;;;;;;4.95;39.18;97387.17;1713078;82;21195;-83
2021/03/20 11:51:04;;;;;;;8.73;6.30;;;;;;;5.23;38.41;97386.14;1749267;81;21186;-89
2021/03/20 11:53:37;;;;;;;13.83;6.90;;;;;;;5.19;39.14;97378.10;1714373;81;21175;-81
2021/03/20 11:56:20;;;;;;;9.85;5.95;;;;;;;5.41;37.90;97371.23;1700367;82;21152;-82
2021/03/20 11:58:58;;;;;;;5.90;4.15;;;;;;;5.33;36.94;97370.81;1698176;82;21135;-80
2021/03/20 12:01:40;;;;;;;9.93;6.30;;;;;;;5.25;36.20;97371.22;1676204;83;21187;-89
2021/03/20 12:04:17;;;;;;;10.78;6.40;;;;;;;5.14;38.10;97360.88;1728725;82;21159;-80
2021/03/20 12:06:46;;;;;;;8.60;6.20;;;;;;;5.20;37.87;97367.55;1724336;82;21589;-85
2021/03/20 12:09:32;;;;;;;10.15;6.33;;;;;;;5.15;37.02;97365.19;1714114;82;21171;-80
2021/03/20 12:12:02;;;;;;;9.98;6.42;;;;;;;5.21;39.08;97367.08;1717886;83;21171;-79
2021/03/20 12:14:49;;;;;;;9.40;6.50;;;;;;;5.38;39.19;97364.37;1719364;83;21155;-87
2021/03/20 12:17:30;;;;;;;8.85;6.62;;;;;;;5.57;40.60;97365.53;1721551;82;21547;-87
2021/03/20 12:20:42;;;;;;;9.28;5.95;;;;;;;5.92;40.00;97360.07;1703503;83;21223;-85
2021/03/20 12:23:18;;;;;;;9.23;6.47;;;;;;;6.16;39.27;97360.08;1689852;83;21177;-81
2021/03/20 12:25:56;;;;;;;8.68;6.20;;;;;;;6.18;38.68;97356.44;1734308;82;21164;-82
2021/03/20 12:28:43;;;;;;;8.30;5.78;;;;;;;6.41;38.69;97359.49;1725466;83;21572;-83
2021/03/20 12:31:22;;;;;;;9.15;6.15;;;;;;;6.64;38.80;97359.43;1711000;83;21171;-87
2021/03/20 12:34:09;;;;;;;;;;;;;;;6.93;39.68;97356.82;1714151;82;21128;-83